Macau International Airport
VMMC : now visible

Aeroporto :











RITROVATECI SU...

 
LOGIN :

Iscrizione | Disclaimer

   EN    FR    IT 

 









Sommario :    VFR   VFR Marginale   IFR   IFR Intensivo   IFR Molto Intensivo
Visibilità : 
Base nubi : 
>= 8 km
>= 3000ft
5 / 8 km
1000 / 3000 ft
1500m / 5 km
500 / 1000 ft
800 / 1500m
200 / 500 ft
< 800m
< 200 ft
Simboli :   Temporali  Nebbia  Neve Forte  Precipitazioni Forti  Vento > 20 kt







- Altitudine del aeroporto : 20 ft
- Codice IATA : MFM


VMMC - Macau International

ULTIMO METAR :
  • 251930Z 23003KT 9999 FEW012 SCT025 26/25 Q1004 NOSIG

METARs OBSOLETI :
  • 251900Z 19004KT 160V220 9999 FEW012 SCT030 26/24 Q1004 NOSIG
  • 251830Z 20005KT 9999 FEW015 SCT030 26/24 Q1004 NOSIG
  • 251800Z 17004KT 150V220 9999 FEW015 SCT030 25/23 Q1004 NOSIG
  • 251730Z VRB02KT 9999 -SHRA FEW012 SCT025 25/24 Q1005 RETS NOSIG
  • 251700Z VRB01KT 9000 -TSRA FEW012CB SCT025 24/24 Q1005 NOSIG

TAF COR TAF VMMC
Valido dal 25 a 18 ore il 27 a 00 ore UTC


251702Z 2518/2624 18008KT 9999 FEW012 SCT025
TEMPO 2518/2522 4000 SHRA FEW010CB SCT020
TEMPO 2522/2604 VRB15G25KT 2500 TSRA FEW008 SCT015CB BKN035
TEMPO 2618/2624 4000 SHRA FEW010CB SCT020
FIR ZGZU / Asia



MetMap, La meteo Aeronautica in un colpo d'occhio ! - Copyright ORBIFLY Dicembre 2007 - Disclaimer

ORBIFLY MET'MAP TEAM :

Programmazione e sviluppo : Alexandra Zaïnal
Concezione e sviluppo : Baudouin d'Aumeries
Co-Programmazione e sviluppo : Marc-Olivier Méhu
Supporto tecnico e logistico : Manuel Goepfert
Aiuto per la traduzione : Arnaldo La Scala

Contatto : metmap@orbifly.com




FONTI E CREDITI :

   NOAA       Earth
Advisory